Time;durP1;ratioP1;P1;durP2;ratioP2;P2;SDS_P1;SDS_P2;PMS_P1;PMS_P2;Temp;Humidity;BMP_temperature;BMP_pressure;BME280_temperature;BME280_humidity;BME280_pressure;Samples;Min_cycle;Max_cycle;Signal;HPM_P1;HPM_P2
2020/12/03 00:00:47;;;;;;;35.87;25.20;;;;;;;;;;5066719;28;20589;-59
2020/12/03 00:03:16;;;;;;;40.77;25.47;;;;;;;;;;5069269;28;20608;-58
2020/12/03 00:05:42;;;;;;;41.30;24.37;;;;;;;;;;5068258;28;20684;-58
2020/12/03 00:08:08;;;;;;;37.83;24.50;;;;;;;;;;5067421;28;20605;-58
2020/12/03 00:10:33;;;;;;;32.67;22.60;;;;;;;;;;5064171;28;20695;-59
2020/12/03 00:13:04;;;;;;;36.03;23.20;;;;;;;;;;5068478;28;20711;-58
2020/12/03 00:15:29;;;;;;;32.93;23.53;;;;;;;;;;5058229;28;20236;-58
2020/12/03 00:17:55;;;;;;;37.10;25.45;;;;;;;;;;5063791;28;20656;-58
2020/12/03 00:20:21;;;;;;;39.10;22.80;;;;;;;;;;5066935;28;20186;-59
2020/12/03 00:22:46;;;;;;;36.23;24.00;;;;;;;;;;5064928;28;20611;-59
2020/12/03 00:25:11;;;;;;;35.43;23.83;;;;;;;;;;5068443;28;20183;-58
2020/12/03 00:27:36;;;;;;;35.57;22.93;;;;;;;;;;5063217;28;20172;-58
2020/12/03 00:30:03;;;;;;;32.67;22.57;;;;;;;;;;5068434;28;20221;-58
2020/12/03 00:32:28;;;;;;;35.27;23.10;;;;;;;;;;5069550;28;20233;-58
2020/12/03 00:34:53;;;;;;;35.15;23.95;;;;;;;;;;5066976;28;20597;-58
2020/12/03 00:37:18;;;;;;;33.60;21.90;;;;;;;;;;5071763;28;20230;-58
2020/12/03 00:39:44;;;;;;;34.50;22.05;;;;;;;;;;5072530;28;20697;-58
2020/12/03 00:42:09;;;;;;;36.57;22.80;;;;;;;;;;5064404;28;20179;-59
2020/12/03 00:44:34;;;;;;;36.80;23.30;;;;;;;;;;5072209;28;20175;-58
2020/12/03 00:46:59;;;;;;;37.13;22.50;;;;;;;;;;5072224;28;20512;-58
2020/12/03 00:49:24;;;;;;;35.27;22.03;;;;;;;;;;5069561;28;20262;-58
2020/12/03 00:51:50;;;;;;;39.70;23.17;;;;;;;;;;5068486;28;20228;-58
2020/12/03 00:54:16;;;;;;;37.13;23.43;;;;;;;;;;5071680;28;20183;-58
2020/12/03 00:56:41;;;;;;;36.40;24.03;;;;;;;;;;5060082;28;21261;-59
2020/12/03 00:59:06;;;;;;;35.50;23.50;;;;;;;;;;5070126;28;20220;-58
2020/12/03 01:01:32;;;;;;;37.63;23.42;;;;;;;;;;5061603;28;20187;-58
2020/12/03 01:03:58;;;;;;;34.40;23.00;;;;;;;;;;5072404;28;20229;-58
2020/12/03 01:06:23;;;;;;;39.80;22.35;;;;;;;;;;5071162;28;20632;-58
2020/12/03 01:08:48;;;;;;;34.65;22.60;;;;;;;;;;5070120;28;20712;-58
2020/12/03 01:11:13;;;;;;;36.17;22.30;;;;;;;;;;5067917;28;20179;-59
2020/12/03 01:13:38;;;;;;;35.45;22.15;;;;;;;;;;5070801;28;20570;-58
2020/12/03 01:16:03;;;;;;;36.38;23.27;;;;;;;;;;5071482;28;20241;-58
2020/12/03 01:18:30;;;;;;;33.67;21.83;;;;;;;;;;5071599;28;20248;-58
2020/12/03 01:20:55;;;;;;;30.93;21.40;;;;;;;;;;5069711;28;20209;-58
2020/12/03 01:23:20;;;;;;;29.77;19.47;;;;;;;;;;5068761;28;20644;-58
2020/12/03 01:25:45;;;;;;;33.35;20.67;;;;;;;;;;5069149;28;20254;-58
2020/12/03 01:28:10;;;;;;;32.58;22.05;;;;;;;;;;5069255;28;20194;-59
2020/12/03 01:30:35;;;;;;;31.30;20.55;;;;;;;;;;5069282;28;20536;-59
2020/12/03 01:33:01;;;;;;;31.00;21.33;;;;;;;;;;5065625;28;20202;-58
2020/12/03 01:35:26;;;;;;;33.80;22.55;;;;;;;;;;5068154;28;20634;-59
2020/12/03 01:37:51;;;;;;;32.90;21.13;;;;;;;;;;5071025;28;20211;-58
2020/12/03 01:40:18;;;;;;;37.33;23.60;;;;;;;;;;5066070;28;20203;-58
2020/12/03 01:42:43;;;;;;;33.67;22.27;;;;;;;;;;5063104;28;20175;-58
2020/12/03 01:45:27;;;;;;;35.87;23.73;;;;;;;;;;5070933;28;20597;-58
2020/12/03 01:47:52;;;;;;;31.63;22.00;;;;;;;;;;5070512;28;20534;-58
2020/12/03 01:50:18;;;;;;;32.60;22.10;;;;;;;;;;5070441;28;20643;-59
2020/12/03 01:52:43;;;;;;;35.57;23.10;;;;;;;;;;5065479;28;20991;-58
2020/12/03 01:55:08;;;;;;;32.35;22.02;;;;;;;;;;5071281;28;20179;-58
2020/12/03 01:57:45;;;;;;;32.83;22.30;;;;;;;;;;5067397;28;20211;-58
2020/12/03 02:00:13;;;;;;;36.77;23.17;;;;;;;;;;5067988;28;20179;-59
2020/12/03 02:02:40;;;;;;;31.70;22.43;;;;;;;;;;5066293;28;20631;-59
2020/12/03 02:05:07;;;;;;;37.17;23.40;;;;;;;;;;5070505;28;20601;-58
2020/12/03 02:07:32;;;;;;;29.13;23.23;;;;;;;;;;5071053;28;20650;-58
2020/12/03 02:09:57;;;;;;;40.35;24.05;;;;;;;;;;5069700;28;20616;-58
2020/12/03 02:12:22;;;;;;;32.38;22.27;;;;;;;;;;5065687;28;20183;-58
2020/12/03 02:14:47;;;;;;;33.70;22.73;;;;;;;;;;5061993;28;20179;-58
2020/12/03 02:17:12;;;;;;;33.75;22.90;;;;;;;;;;5070523;28;20656;-59
2020/12/03 02:19:39;;;;;;;33.40;23.00;;;;;;;;;;5070768;28;20170;-59
2020/12/03 02:22:06;;;;;;;34.97;24.90;;;;;;;;;;5067671;28;20191;-58
2020/12/03 02:24:33;;;;;;;33.53;25.37;;;;;;;;;;5067564;28;20619;-58
2020/12/03 02:26:58;;;;;;;38.20;23.97;;;;;;;;;;5069831;28;20615;-58
2020/12/03 02:29:23;;;;;;;38.00;25.50;;;;;;;;;;5069752;28;20613;-58
2020/12/03 02:31:49;;;;;;;34.20;22.97;;;;;;;;;;5068704;28;20657;-58
2020/12/03 02:34:14;;;;;;;37.40;25.47;;;;;;;;;;5069619;28;20265;-58
2020/12/03 02:36:40;;;;;;;35.60;24.03;;;;;;;;;;5068563;28;20199;-59
2020/12/03 02:39:05;;;;;;;41.10;25.47;;;;;;;;;;5062228;28;20239;-59
2020/12/03 02:41:30;;;;;;;37.43;24.97;;;;;;;;;;5056160;28;20171;-58
2020/12/03 02:43:55;;;;;;;35.10;25.23;;;;;;;;;;5067779;28;20172;-58
2020/12/03 02:46:20;;;;;;;39.15;24.17;;;;;;;;;;5066853;28;20179;-59
2020/12/03 02:48:45;;;;;;;35.20;25.17;;;;;;;;;;5064558;28;20190;-58
2020/12/03 02:51:13;;;;;;;38.22;25.67;;;;;;;;;;5067586;28;20637;-59
2020/12/03 02:53:38;;;;;;;36.77;25.50;;;;;;;;;;5068526;28;20179;-58
2020/12/03 02:56:03;;;;;;;32.40;23.90;;;;;;;;;;5069593;28;20604;-58
2020/12/03 02:58:28;;;;;;;33.75;23.58;;;;;;;;;;5069270;28;20729;-58
2020/12/03 03:00:53;;;;;;;33.43;24.37;;;;;;;;;;5066127;28;20179;-57
2020/12/03 03:03:18;;;;;;;33.15;23.40;;;;;;;;;;5067888;28;20599;-58
2020/12/03 03:05:44;;;;;;;46.33;27.25;;;;;;;;;;5069777;28;20539;-60
2020/12/03 03:08:09;;;;;;;35.60;25.42;;;;;;;;;;5061666;28;20187;-58
2020/12/03 03:10:34;;;;;;;37.60;25.37;;;;;;;;;;5068628;28;20206;-57
2020/12/03 03:12:59;;;;;;;37.33;24.65;;;;;;;;;;5066366;28;20182;-58
2020/12/03 03:15:24;;;;;;;32.78;23.58;;;;;;;;;;5068182;28;20309;-58
2020/12/03 03:17:49;;;;;;;35.40;23.25;;;;;;;;;;5069865;28;20203;-58
2020/12/03 03:20:14;;;;;;;33.37;24.80;;;;;;;;;;5060966;28;20175;-58
2020/12/03 03:22:40;;;;;;;36.42;24.52;;;;;;;;;;5064315;28;20183;-58
2020/12/03 03:25:06;;;;;;;37.93;25.10;;;;;;;;;;5068503;28;20539;-59
2020/12/03 03:27:31;;;;;;;38.37;24.47;;;;;;;;;;5067710;28;20182;-59
2020/12/03 03:29:56;;;;;;;40.73;27.13;;;;;;;;;;5069187;28;21248;-58
2020/12/03 03:32:21;;;;;;;35.45;24.15;;;;;;;;;;5066858;28;20179;-59
2020/12/03 03:34:46;;;;;;;38.47;25.52;;;;;;;;;;5069438;28;20192;-58
2020/12/03 03:37:12;;;;;;;36.25;24.98;;;;;;;;;;5068872;28;20801;-59
2020/12/03 03:39:37;;;;;;;38.50;25.92;;;;;;;;;;5065781;28;20182;-58
2020/12/03 03:42:02;;;;;;;36.28;25.38;;;;;;;;;;5066828;28;20205;-59
2020/12/03 03:44:27;;;;;;;39.33;26.23;;;;;;;;;;5069091;28;20518;-59
2020/12/03 03:46:52;;;;;;;36.78;24.10;;;;;;;;;;5067802;28;20171;-58
2020/12/03 03:49:17;;;;;;;35.72;24.60;;;;;;;;;;5059480;28;20211;-59
2020/12/03 03:51:43;;;;;;;40.13;25.43;;;;;;;;;;5063793;28;20695;-58
2020/12/03 03:54:08;;;;;;;38.78;24.95;;;;;;;;;;5059323;28;20249;-59
2020/12/03 03:56:33;;;;;;;41.63;26.52;;;;;;;;;;5066520;28;20187;-59
2020/12/03 03:58:58;;;;;;;35.30;24.17;;;;;;;;;;5069246;28;20234;-58
2020/12/03 04:01:24;;;;;;;40.20;24.80;;;;;;;;;;5067016;28;20262;-58
2020/12/03 04:03:49;;;;;;;38.37;26.93;;;;;;;;;;5068267;28;20183;-58
2020/12/03 04:06:14;;;;;;;37.33;23.95;;;;;;;;;;5069570;28;20172;-57
2020/12/03 04:08:39;;;;;;;40.20;25.93;;;;;;;;;;5072972;28;20188;-57
2020/12/03 04:11:04;;;;;;;42.42;26.27;;;;;;;;;;5072180;28;20610;-58
2020/12/03 04:13:30;;;;;;;38.78;25.75;;;;;;;;;;5065920;28;20233;-57
2020/12/03 04:15:55;;;;;;;39.43;25.60;;;;;;;;;;5072616;28;20325;-58
2020/12/03 04:18:26;;;;;;;36.73;25.57;;;;;;;;;;5065501;28;20211;-58
2020/12/03 04:20:52;;;;;;;40.90;27.23;;;;;;;;;;5070241;28;20179;-58
2020/12/03 04:23:17;;;;;;;35.20;24.13;;;;;;;;;;5068437;28;20595;-58
2020/12/03 04:25:42;;;;;;;37.67;24.63;;;;;;;;;;5068352;28;20866;-58
2020/12/03 04:28:07;;;;;;;37.17;24.20;;;;;;;;;;5068187;28;20191;-58
2020/12/03 04:30:32;;;;;;;38.43;25.93;;;;;;;;;;5068397;28;20565;-59
2020/12/03 04:32:58;;;;;;;38.37;25.63;;;;;;;;;;5066877;28;20236;-59
2020/12/03 04:35:23;;;;;;;38.95;25.75;;;;;;;;;;5068187;28;20179;-58
2020/12/03 04:37:48;;;;;;;37.65;24.70;;;;;;;;;;5069972;28;20218;-59
2020/12/03 04:40:30;;;;;;;41.70;27.47;;;;;;;;;;5068308;28;20553;-59
2020/12/03 04:42:57;;;;;;;37.00;25.00;;;;;;;;;;5064543;28;20219;-59
2020/12/03 04:45:38;;;;;;;42.30;27.30;;;;;;;;;;5064496;28;20615;-58
2020/12/03 04:48:22;;;;;;;39.57;24.70;;;;;;;;;;5064029;28;21386;-59
2020/12/03 04:50:55;;;;;;;40.83;25.10;;;;;;;;;;5063269;28;20620;-58
2020/12/03 04:53:39;;;;;;;37.90;25.17;;;;;;;;;;5062440;28;20617;-58
2020/12/03 04:56:07;;;;;;;39.70;25.03;;;;;;;;;;5067294;28;20636;-59
2020/12/03 04:58:44;;;;;;;41.30;25.97;;;;;;;;;;5067303;28;21075;-59
2020/12/03 05:01:09;;;;;;;40.37;25.60;;;;;;;;;;5066797;28;20679;-58
2020/12/03 05:03:56;;;;;;;38.00;25.13;;;;;;;;;;5069845;28;20646;-58
2020/12/03 05:06:36;;;;;;;40.63;28.00;;;;;;;;;;5065087;28;20655;-58
2020/12/03 05:09:07;;;;;;;39.53;24.90;;;;;;;;;;5072058;28;20644;-58
2020/12/03 05:11:36;;;;;;;41.40;28.27;;;;;;;;;;5070287;28;20655;-59
2020/12/03 05:14:03;;;;;;;39.93;24.63;;;;;;;;;;5069650;28;21048;-58
2020/12/03 05:16:45;;;;;;;44.53;28.57;;;;;;;;;;5063799;28;20655;-58
2020/12/03 05:19:15;;;;;;;41.33;27.27;;;;;;;;;;5070570;28;20690;-58
2020/12/03 05:21:41;;;;;;;40.97;25.73;;;;;;;;;;5070713;28;20682;-57
2020/12/03 05:24:09;;;;;;;40.37;27.60;;;;;;;;;;5067965;28;20641;-58
2020/12/03 05:26:35;;;;;;;43.00;27.83;;;;;;;;;;5069162;28;20523;-58
2020/12/03 05:29:07;;;;;;;43.87;27.20;;;;;;;;;;5070592;28;20599;-59
2020/12/03 05:31:36;;;;;;;40.30;26.67;;;;;;;;;;5063287;28;20198;-59
2020/12/03 05:34:21;;;;;;;43.40;26.77;;;;;;;;;;5068519;28;21205;-59
2020/12/03 05:36:46;;;;;;;42.43;26.83;;;;;;;;;;5070530;28;20594;-59
2020/12/03 05:39:13;;;;;;;41.42;27.25;;;;;;;;;;5065012;28;20660;-59
2020/12/03 05:41:52;;;;;;;40.73;25.60;;;;;;;;;;5062002;28;20185;-59
2020/12/03 05:44:22;;;;;;;38.33;25.00;;;;;;;;;;5057421;28;20725;-59
2020/12/03 05:46:48;;;;;;;37.70;27.37;;;;;;;;;;5068447;28;20627;-59
2020/12/03 05:49:17;;;;;;;40.73;26.17;;;;;;;;;;5061527;28;20601;-59
2020/12/03 05:51:42;;;;;;;45.43;28.63;;;;;;;;;;5058183;28;20593;-59
2020/12/03 05:54:08;;;;;;;44.77;26.90;;;;;;;;;;5066497;28;20602;-59
2020/12/03 05:56:33;;;;;;;44.53;26.67;;;;;;;;;;5068162;28;20231;-59
2020/12/03 05:59:11;;;;;;;42.43;27.00;;;;;;;;;;5068307;28;20196;-59
2020/12/03 06:01:38;;;;;;;42.10;27.37;;;;;;;;;;5058191;28;20763;-59
2020/12/03 06:04:19;;;;;;;46.73;27.77;;;;;;;;;;5064126;28;20578;-59
2020/12/03 06:07:06;;;;;;;42.90;25.50;;;;;;;;;;5058554;28;20605;-59
2020/12/03 06:09:51;;;;;;;47.10;28.27;;;;;;;;;;5067127;28;20625;-59
2020/12/03 06:12:34;;;;;;;47.00;28.70;;;;;;;;;;5064995;28;20644;-60
2020/12/03 06:15:08;;;;;;;48.00;28.53;;;;;;;;;;5067141;28;21324;-58
2020/12/03 06:17:51;;;;;;;47.17;28.70;;;;;;;;;;5066857;28;20653;-59
2020/12/03 06:20:28;;;;;;;51.70;29.90;;;;;;;;;;5070570;28;20595;-59
2020/12/03 06:23:07;;;;;;;44.77;29.37;;;;;;;;;;5067538;28;21046;-58
2020/12/03 06:25:35;;;;;;;49.23;30.20;;;;;;;;;;5070676;28;20637;-60
2020/12/03 06:28:06;;;;;;;51.30;30.40;;;;;;;;;;5069229;28;20583;-59
2020/12/03 06:30:39;;;;;;;46.60;26.57;;;;;;;;;;5070080;28;21163;-60
2020/12/03 06:33:11;;;;;;;48.07;29.00;;;;;;;;;;5063090;28;20611;-60
2020/12/03 06:35:39;;;;;;;51.23;30.03;;;;;;;;;;5049973;28;20590;-60
2020/12/03 06:38:23;;;;;;;48.10;30.07;;;;;;;;;;5049936;28;20647;-59
2020/12/03 06:40:56;;;;;;;45.77;27.80;;;;;;;;;;5050093;28;20593;-60
2020/12/03 06:43:38;;;;;;;48.83;28.77;;;;;;;;;;5047097;28;20958;-59
2020/12/03 06:46:22;;;;;;;52.87;28.67;;;;;;;;;;5049976;28;20575;-58
2020/12/03 06:49:06;;;;;;;47.23;29.13;;;;;;;;;;5049865;28;20890;-59
2020/12/03 06:51:36;;;;;;;42.13;27.70;;;;;;;;;;5049742;28;21043;-59
2020/12/03 06:54:08;;;;;;;45.47;28.67;;;;;;;;;;5048683;28;21159;-58
2020/12/03 06:56:45;;;;;;;44.07;28.23;;;;;;;;;;5049802;28;20777;-59
2020/12/03 06:59:20;;;;;;;45.00;26.60;;;;;;;;;;5049716;28;20691;-59
2020/12/03 07:02:09;;;;;;;46.47;28.03;;;;;;;;;;5050280;28;20585;-60
2020/12/03 07:04:43;;;;;;;46.10;26.57;;;;;;;;;;5065034;28;20694;-59
2020/12/03 07:07:38;;;;;;;46.63;28.17;;;;;;;;;;5065202;28;21017;-60
2020/12/03 07:10:20;;;;;;;46.13;27.53;;;;;;;;;;5010557;28;20611;-60
2020/12/03 07:12:52;;;;;;;46.53;29.67;;;;;;;;;;5069826;28;20707;-60
2020/12/03 07:15:35;;;;;;;48.63;31.13;;;;;;;;;;5065719;28;20679;-60
2020/12/03 07:18:19;;;;;;;50.97;29.90;;;;;;;;;;5066248;28;21079;-60
2020/12/03 07:20:51;;;;;;;49.07;28.73;;;;;;;;;;5066044;28;20617;-60
2020/12/03 07:23:28;;;;;;;54.73;32.00;;;;;;;;;;5062216;28;20637;-60
2020/12/03 07:25:54;;;;;;;56.73;32.53;;;;;;;;;;5066283;28;20607;-59
2020/12/03 07:28:25;;;;;;;55.23;33.30;;;;;;;;;;5067628;28;20711;-59
2020/12/03 07:30:57;;;;;;;52.03;30.63;;;;;;;;;;5065103;28;20323;-60
2020/12/03 07:33:22;;;;;;;54.97;31.60;;;;;;;;;;5061951;28;20613;-59
2020/12/03 07:35:50;;;;;;;56.78;33.42;;;;;;;;;;5066895;28;20612;-59
2020/12/03 07:38:19;;;;;;;58.60;34.13;;;;;;;;;;5061581;28;20257;-59
2020/12/03 07:40:49;;;;;;;70.17;41.90;;;;;;;;;;5062920;28;21053;-60
2020/12/03 07:43:18;;;;;;;60.13;35.07;;;;;;;;;;5060304;28;20629;-60
2020/12/03 07:45:44;;;;;;;62.37;35.60;;;;;;;;;;5065023;28;20576;-60
2020/12/03 07:48:28;;;;;;;63.20;38.57;;;;;;;;;;5064977;28;20595;-59
2020/12/03 07:50:59;;;;;;;63.43;38.87;;;;;;;;;;5065331;28;20770;-60
2020/12/03 07:53:25;;;;;;;60.23;36.70;;;;;;;;;;5055578;28;20688;-60
2020/12/03 07:55:50;;;;;;;49.10;32.73;;;;;;;;;;5058558;28;20609;-60
2020/12/03 07:58:31;;;;;;;53.80;33.40;;;;;;;;;;5063475;28;20508;-59
2020/12/03 08:00:56;;;;;;;61.13;34.37;;;;;;;;;;5059054;28;20180;-60
2020/12/03 08:03:45;;;;;;;59.27;36.97;;;;;;;;;;5060716;28;20624;-59
2020/12/03 08:06:19;;;;;;;59.40;35.63;;;;;;;;;;5047593;28;20168;-59
2020/12/03 08:08:47;;;;;;;58.97;34.77;;;;;;;;;;5049032;28;20571;-59
2020/12/03 08:11:31;;;;;;;56.40;34.00;;;;;;;;;;5048984;28;20572;-59
2020/12/03 08:13:57;;;;;;;52.10;32.17;;;;;;;;;;5048132;28;20597;-59
2020/12/03 08:16:33;;;;;;;48.23;31.73;;;;;;;;;;5049342;28;20746;-58
2020/12/03 08:18:58;;;;;;;50.50;31.37;;;;;;;;;;5049862;28;20200;-58
2020/12/03 08:21:35;;;;;;;51.17;32.58;;;;;;;;;;5049065;28;20575;-57
2020/12/03 08:24:00;;;;;;;51.20;30.83;;;;;;;;;;5060144;28;20176;-57
2020/12/03 08:26:27;;;;;;;48.77;31.90;;;;;;;;;;5067534;28;20598;-58
2020/12/03 08:28:52;;;;;;;52.20;30.53;;;;;;;;;;5069151;28;20172;-58
2020/12/03 08:31:17;;;;;;;50.50;31.93;;;;;;;;;;5069008;28;20618;-58
2020/12/03 08:33:42;;;;;;;53.10;33.60;;;;;;;;;;5067274;28;20179;-59
2020/12/03 08:36:08;;;;;;;55.30;32.00;;;;;;;;;;5055067;28;20508;-58
2020/12/03 08:38:37;;;;;;;53.67;33.60;;;;;;;;;;5048860;28;20499;-58
2020/12/03 08:41:05;;;;;;;52.70;31.93;;;;;;;;;;5049975;28;20698;-58
2020/12/03 08:43:33;;;;;;;50.10;33.70;;;;;;;;;;5046999;28;20926;-58
2020/12/03 08:48:28;;;;;;;51.03;33.27;;;;;;;;;;5048683;28;21006;-58
2020/12/03 08:51:08;;;;;;;56.60;34.93;;;;;;;;;;5048718;28;20575;-58
2020/12/03 08:53:34;;;;;;;52.63;33.73;;;;;;;;;;5051840;28;20575;-58
2020/12/03 08:56:08;;;;;;;55.03;34.77;;;;;;;;;;5053479;28;20597;-59
2020/12/03 08:58:35;;;;;;;53.57;33.43;;;;;;;;;;5051915;28;20658;-58
2020/12/03 09:01:01;;;;;;;51.90;34.30;;;;;;;;;;5052187;28;20575;-58
2020/12/03 09:03:26;;;;;;;49.50;33.00;;;;;;;;;;5049740;28;20574;-58
2020/12/03 09:05:52;;;;;;;54.53;32.73;;;;;;;;;;5052047;28;20666;-58
2020/12/03 09:08:19;;;;;;;49.97;32.53;;;;;;;;;;5053170;28;20192;-58
2020/12/03 09:10:45;;;;;;;43.93;31.40;;;;;;;;;;5052063;28;20712;-57
2020/12/03 09:13:10;;;;;;;48.07;32.17;;;;;;;;;;5051621;28;20699;-58
2020/12/03 09:15:35;;;;;;;50.97;31.67;;;;;;;;;;5049948;28;20966;-58
2020/12/03 09:18:04;;;;;;;45.50;31.37;;;;;;;;;;5053196;28;20280;-58
2020/12/03 09:20:29;;;;;;;46.57;30.57;;;;;;;;;;5051741;28;20333;-58
2020/12/03 09:22:54;;;;;;;42.40;29.70;;;;;;;;;;5051826;28;20636;-57
2020/12/03 09:25:20;;;;;;;46.95;32.00;;;;;;;;;;5050046;28;20160;-58
2020/12/03 09:27:46;;;;;;;45.87;31.20;;;;;;;;;;5053013;28;20682;-58
2020/12/03 09:30:22;;;;;;;45.00;30.50;;;;;;;;;;5051699;28;20659;-58
2020/12/03 09:32:51;;;;;;;46.60;30.63;;;;;;;;;;5051563;28;20579;-58
2020/12/03 09:35:16;;;;;;;46.43;32.07;;;;;;;;;;5049494;28;20614;-58
2020/12/03 09:37:41;;;;;;;52.60;33.43;;;;;;;;;;5051645;28;20643;-58
2020/12/03 09:40:07;;;;;;;49.70;33.20;;;;;;;;;;5052395;28;20195;-58
2020/12/03 09:42:41;;;;;;;44.77;32.77;;;;;;;;;;5051503;28;20190;-59
2020/12/03 09:45:08;;;;;;;46.13;31.43;;;;;;;;;;5049645;28;20172;-58
2020/12/03 09:47:34;;;;;;;47.63;29.90;;;;;;;;;;5051445;28;20967;-58
2020/12/03 09:49:59;;;;;;;47.40;32.30;;;;;;;;;;5052722;28;20587;-58
2020/12/03 09:52:25;;;;;;;44.73;30.50;;;;;;;;;;5051273;28;21620;-58
2020/12/03 09:54:50;;;;;;;48.33;30.80;;;;;;;;;;5049409;28;20264;-58
2020/12/03 09:57:15;;;;;;;49.07;31.43;;;;;;;;;;5051315;28;20196;-58
2020/12/03 09:59:40;;;;;;;44.60;29.80;;;;;;;;;;5052301;28;20176;-58
2020/12/03 10:02:24;;;;;;;44.97;30.75;;;;;;;;;;5051219;28;20173;-58
2020/12/03 10:04:58;;;;;;;42.90;30.70;;;;;;;;;;5046674;28;20247;-58
2020/12/03 10:07:43;;;;;;;44.93;29.20;;;;;;;;;;5051229;28;20568;-57
2020/12/03 10:10:11;;;;;;;43.17;29.40;;;;;;;;;;5051932;28;20606;-58
2020/12/03 10:12:36;;;;;;;44.10;30.83;;;;;;;;;;5051122;28;20598;-59
2020/12/03 10:15:15;;;;;;;45.38;31.45;;;;;;;;;;5047221;28;20569;-59
2020/12/03 10:18:03;;;;;;;44.97;28.77;;;;;;;;;;5050909;28;20220;-59
2020/12/03 10:20:28;;;;;;;48.23;32.27;;;;;;;;;;5051490;28;20776;-59
2020/12/03 10:22:58;;;;;;;43.23;30.63;;;;;;;;;;5051033;28;20585;-59
2020/12/03 10:25:27;;;;;;;45.27;31.47;;;;;;;;;;5048608;28;20621;-59
2020/12/03 10:28:05;;;;;;;44.53;29.53;;;;;;;;;;5050851;28;20569;-59
2020/12/03 10:30:35;;;;;;;46.03;30.83;;;;;;;;;;5051357;28;21179;-59
2020/12/03 10:33:02;;;;;;;42.97;29.70;;;;;;;;;;5049404;28;20601;-59
2020/12/03 10:35:28;;;;;;;47.40;30.30;;;;;;;;;;5048338;28;20583;-59
2020/12/03 10:37:55;;;;;;;43.63;29.93;;;;;;;;;;5050554;28;20628;-59
2020/12/03 10:40:20;;;;;;;41.53;30.07;;;;;;;;;;5050367;28;20589;-59
2020/12/03 10:42:47;;;;;;;46.10;30.50;;;;;;;;;;5051665;28;21162;-59
2020/12/03 10:45:15;;;;;;;42.90;29.37;;;;;;;;;;5048513;28;20171;-59
2020/12/03 10:47:52;;;;;;;45.20;31.90;;;;;;;;;;5050507;28;20828;-59
2020/12/03 10:50:18;;;;;;;46.30;30.90;;;;;;;;;;5049825;28;20570;-59
2020/12/03 10:52:44;;;;;;;41.97;29.57;;;;;;;;;;5060890;28;20600;-59
2020/12/03 10:55:11;;;;;;;45.40;30.80;;;;;;;;;;5066166;28;20767;-59
2020/12/03 10:57:38;;;;;;;44.57;29.47;;;;;;;;;;5069725;28;21175;-59
2020/12/03 11:00:08;;;;;;;42.53;29.67;;;;;;;;;;5069962;28;20990;-59
2020/12/03 11:02:40;;;;;;;44.47;30.53;;;;;;;;;;5069692;28;20592;-59
2020/12/03 11:05:09;;;;;;;39.93;27.20;;;;;;;;;;5068014;28;20923;-59
2020/12/03 11:07:35;;;;;;;40.23;27.77;;;;;;;;;;5069584;28;20563;-59
2020/12/03 11:10:00;;;;;;;42.87;29.90;;;;;;;;;;5069642;28;20567;-59
2020/12/03 11:12:27;;;;;;;40.00;28.07;;;;;;;;;;5056405;28;20593;-60
2020/12/03 11:14:52;;;;;;;44.30;30.87;;;;;;;;;;5047363;28;20177;-61
2020/12/03 11:17:23;;;;;;;43.13;30.60;;;;;;;;;;5049172;28;20986;-59
2020/12/03 11:19:49;;;;;;;45.50;31.20;;;;;;;;;;5049245;28;20188;-59
2020/12/03 11:22:26;;;;;;;40.10;29.57;;;;;;;;;;5049363;28;20592;-59
2020/12/03 11:24:56;;;;;;;43.00;28.57;;;;;;;;;;5047873;28;20596;-60
2020/12/03 11:27:22;;;;;;;45.27;30.63;;;;;;;;;;5049385;28;21004;-60
2020/12/03 11:29:48;;;;;;;45.40;30.57;;;;;;;;;;5049314;28;20710;-60
2020/12/03 11:32:20;;;;;;;42.10;30.13;;;;;;;;;;5049365;28;20688;-59
2020/12/03 11:34:45;;;;;;;45.70;31.67;;;;;;;;;;5044523;28;20174;-59
2020/12/03 11:37:10;;;;;;;42.33;30.92;;;;;;;;;;5048737;28;20574;-60
2020/12/03 11:39:35;;;;;;;39.13;28.47;;;;;;;;;;5048820;28;20218;-59
2020/12/03 11:42:35;;;;;;;41.22;29.95;;;;;;;;;;5048819;28;20186;-59
2020/12/03 11:50:22;;;;;;;42.00;28.90;;;;;;;;;;5048995;28;21081;-59
2020/12/03 11:52:48;;;;;;;42.63;29.43;;;;;;;;;;5048676;28;20559;-59
2020/12/03 11:55:23;;;;;;;41.97;28.83;;;;;;;;;;5046760;28;20160;-59
2020/12/03 11:57:49;;;;;;;39.07;28.67;;;;;;;;;;5048815;28;20726;-59
2020/12/03 12:00:15;;;;;;;44.80;29.00;;;;;;;;;;5048975;28;20953;-58
2020/12/03 12:02:40;;;;;;;43.20;30.10;;;;;;;;;;5049091;28;20521;-60
2020/12/03 12:05:12;;;;;;;44.00;29.15;;;;;;;;;;5047128;28;20179;-60
2020/12/03 12:07:45;;;;;;;42.87;28.90;;;;;;;;;;5049159;28;20172;-60
2020/12/03 12:10:35;;;;;;;44.87;30.20;;;;;;;;;;5048936;28;20613;-60
2020/12/03 12:12:55;;;;;;;43.20;29.67;;;;;;;;;;5048621;28;20680;-60
2020/12/03 12:15:20;;;;;;;40.85;27.58;;;;;;;;;;5046860;28;20779;-60
2020/12/03 12:17:46;;;;;;;40.50;25.25;;;;;;;;;;5049017;28;20233;-60
2020/12/03 12:20:12;;;;;;;41.20;27.53;;;;;;;;;;5048770;28;20172;-60
2020/12/03 12:22:37;;;;;;;39.63;27.93;;;;;;;;;;5048770;28;20182;-60
2020/12/03 12:25:02;;;;;;;43.10;27.50;;;;;;;;;;5047286;28;20573;-60
2020/12/03 12:27:28;;;;;;;43.37;29.23;;;;;;;;;;5050109;28;20197;-60
2020/12/03 12:29:53;;;;;;;42.50;28.73;;;;;;;;;;5052731;28;20242;-60
2020/12/03 12:32:19;;;;;;;40.93;28.77;;;;;;;;;;5052629;28;20624;-60
2020/12/03 12:34:44;;;;;;;39.57;27.30;;;;;;;;;;5050731;28;20183;-60
2020/12/03 12:37:10;;;;;;;38.58;26.50;;;;;;;;;;5052438;28;20170;-60
2020/12/03 12:39:35;;;;;;;37.80;25.83;;;;;;;;;;5052426;28;20218;-60
2020/12/03 12:42:02;;;;;;;37.80;25.67;;;;;;;;;;5052754;28;20581;-60
2020/12/03 12:44:27;;;;;;;37.90;25.20;;;;;;;;;;5050270;28;20170;-60
2020/12/03 12:46:56;;;;;;;44.37;29.30;;;;;;;;;;5052547;28;20652;-60
2020/12/03 12:49:22;;;;;;;39.23;25.73;;;;;;;;;;5052295;28;20248;-59
2020/12/03 12:51:47;;;;;;;43.33;27.83;;;;;;;;;;5052216;28;21007;-59
2020/12/03 12:54:12;;;;;;;38.97;27.08;;;;;;;;;;5052066;28;20173;-59
2020/12/03 12:56:38;;;;;;;41.77;27.93;;;;;;;;;;5050623;28;20204;-59
2020/12/03 12:59:04;;;;;;;39.50;27.20;;;;;;;;;;5052146;28;20224;-58
2020/12/03 13:01:29;;;;;;;42.57;27.13;;;;;;;;;;5052027;28;20598;-59
2020/12/03 13:03:54;;;;;;;39.75;26.35;;;;;;;;;;5051777;28;20162;-59
2020/12/03 13:06:19;;;;;;;42.80;28.10;;;;;;;;;;5050102;28;20561;-58
2020/12/03 13:08:44;;;;;;;39.90;26.60;;;;;;;;;;5052183;28;20416;-59
2020/12/03 13:11:09;;;;;;;40.90;28.03;;;;;;;;;;5052073;28;20310;-59
2020/12/03 13:13:35;;;;;;;41.38;28.50;;;;;;;;;;5051909;28;20208;-58
2020/12/03 13:16:00;;;;;;;40.70;26.23;;;;;;;;;;5054343;28;20224;-58
2020/12/03 13:18:26;;;;;;;40.10;27.60;;;;;;;;;;5071238;28;20637;-58
2020/12/03 13:20:51;;;;;;;47.40;27.60;;;;;;;;;;5068390;28;20665;-58
2020/12/03 13:23:16;;;;;;;39.00;25.27;;;;;;;;;;5071502;28;20167;-61
2020/12/03 13:25:41;;;;;;;45.77;28.07;;;;;;;;;;5069876;28;20195;-58
2020/12/03 13:28:06;;;;;;;39.63;26.73;;;;;;;;;;5071555;28;20191;-58
2020/12/03 13:30:31;;;;;;;43.90;28.00;;;;;;;;;;5071018;28;20188;-59
2020/12/03 13:32:57;;;;;;;47.13;27.93;;;;;;;;;;5069939;28;20238;-59
2020/12/03 13:35:22;;;;;;;38.67;25.75;;;;;;;;;;5061928;28;20186;-59
2020/12/03 13:37:47;;;;;;;41.88;27.55;;;;;;;;;;5067091;28;20712;-59
2020/12/03 13:40:12;;;;;;;43.80;28.77;;;;;;;;;;5066387;28;20198;-59
2020/12/03 13:42:37;;;;;;;38.55;27.02;;;;;;;;;;5066268;28;20214;-59
2020/12/03 13:45:02;;;;;;;42.57;27.97;;;;;;;;;;5067152;28;20337;-58
2020/12/03 13:47:28;;;;;;;44.90;28.87;;;;;;;;;;5075848;28;20177;-58
2020/12/03 13:49:54;;;;;;;40.77;27.20;;;;;;;;;;5068295;28;20219;-60
2020/12/03 13:52:19;;;;;;;36.83;25.95;;;;;;;;;;5068050;28;20696;-58
2020/12/03 13:54:44;;;;;;;42.80;29.13;;;;;;;;;;5066456;28;20168;-58
2020/12/03 13:57:09;;;;;;;42.88;28.27;;;;;;;;;;5067196;28;20204;-59
2020/12/03 13:59:34;;;;;;;45.15;27.80;;;;;;;;;;5066794;28;20699;-59
2020/12/03 14:01:59;;;;;;;40.10;28.25;;;;;;;;;;5067805;28;20179;-59
2020/12/03 14:04:24;;;;;;;40.50;27.80;;;;;;;;;;5067403;28;20181;-59
2020/12/03 14:06:50;;;;;;;41.83;28.25;;;;;;;;;;5065990;28;20177;-59
2020/12/03 14:09:16;;;;;;;42.37;28.60;;;;;;;;;;5066212;28;20173;-59
2020/12/03 14:11:43;;;;;;;45.93;29.50;;;;;;;;;;5067568;28;20178;-59
2020/12/03 14:14:08;;;;;;;42.97;27.73;;;;;;;;;;5067272;28;21181;-59
2020/12/03 14:16:33;;;;;;;39.80;26.50;;;;;;;;;;5064906;28;20654;-59
2020/12/03 14:18:58;;;;;;;45.38;28.73;;;;;;;;;;5067152;28;20247;-59
2020/12/03 14:21:23;;;;;;;45.08;28.00;;;;;;;;;;5066921;28;20182;-59
2020/12/03 14:23:48;;;;;;;43.30;27.23;;;;;;;;;;5067416;28;20178;-59
2020/12/03 14:26:13;;;;;;;45.70;29.33;;;;;;;;;;5065298;28;20185;-59
2020/12/03 14:28:38;;;;;;;47.30;29.00;;;;;;;;;;5066941;28;20226;-59
2020/12/03 14:31:04;;;;;;;45.55;29.15;;;;;;;;;;5067502;28;20597;-59